Kezdőlap
METAR-TAF:

METAR-TAF

Repülőterek :

Chlef, Algéria

földrajzi szélesség: 36-13N, földrajzi hosszúság: 001-20E, magasság: 143 m

Jelenlegi meteorológiai megfigyelések

A jelentés 25 perccel ezelõtt készült, 13:00 UTC
Keleti szél 5 kt
Hőmérséklet 37°C
Légköri nyomás 1009 hPa
Látótávolság 10 km, vagy több
felhőtlen 1500 m magasságban, és nincs gomolyfelhõ

METAR: DAOI 301300Z 09005KT CAVOK 37/// Q1009

Idő: 14:25 (13:25 UTC)

Előrejelzés

A jelentés 2 órával és 25 perccel ezelõtt készült, 11:00 UTC
Az előrejelzés 30-én 12 óra UTC és 31-én 12 óra UTC között érvényes
Északi szél 10 kt
Látótávolság 10 km, vagy több
felhőtlen 1500 m magasságban, és nincs gomolyfelhõ
30-én 19 óra UTC és 30-én 21 óra UTC között fokozatosan kialakuló
Különbözõ irányokból fújó szél 2 kt
31-én 10 óra UTC és 31-én 12 óra UTC között fokozatosan kialakuló
Északi szél 12 kt

TAF: DAOI 301100Z 3012/3112 35010KT CAVOK BECMG 3019/3021 VRB02KT BECMG 3110/3112 35012KT

Meteorológiai megfigyelések és előrejelzések több, mint 4000 repülőtéren (METAR és TAF jelentéseket).

A térképen piros és sárga pontok jelzik az elérhető meteorológiai állomásokat.

Mozgassa az egeret a pont fölött, hogy megjelenjen az állomás neve.

Azután kattintson az időjárási megfigyelések és előrejelzések megtekintéséhez.

A térkép megváltoztatása: kattintson a fekete keresztel jelölt zöld gombra ráközelítéshez, a vonallal jelölt zöld gombra távolításhoz, vagy a zöld nyilakra a szomszédos térképek eléréséhez.


METAR-TAF: